Time;durP1;ratioP1;P1;durP2;ratioP2;P2;SDS_P1;SDS_P2;PMS_P1;PMS_P2;Temp;Humidity;BMP_temperature;BMP_pressure;BME280_temperature;BME280_humidity;BME280_pressure;Samples;Min_cycle;Max_cycle;Signal;HPM_P1;HPM_P2
2022/07/28 00:02:04;;;;;;;1976.95;999.90;;;11.30;99.90;;;;;;4919915;29;20048;-74
2022/07/28 00:04:31;;;;;;;1999.90;999.90;;;11.10;99.90;;;;;;4920240;29;20462;-75
2022/07/28 00:06:57;;;;;;;1999.90;999.90;;;11.20;99.90;;;;;;4919554;29;20181;-74
2022/07/28 00:09:23;;;;;;;1999.90;999.90;;;11.10;99.90;;;;;;4920127;29;20284;-75
2022/07/28 00:11:49;;;;;;;1890.18;999.90;;;11.10;99.90;;;;;;4903086;29;20054;-76
2022/07/28 00:14:15;;;;;;;1908.75;999.90;;;11.10;99.90;;;;;;4920062;29;20248;-75
2022/07/28 00:16:41;;;;;;;1999.90;999.90;;;11.10;99.90;;;;;;4919597;29;20044;-77
2022/07/28 00:19:07;;;;;;;1999.90;999.90;;;11.00;99.90;;;;;;4902800;29;20055;-76
2022/07/28 00:21:32;;;;;;;1999.90;999.90;;;11.00;99.90;;;;;;4919859;29;20040;-75
2022/07/28 00:23:58;;;;;;;1837.50;999.90;;;11.00;99.90;;;;;;4919145;29;20561;-76
2022/07/28 00:26:23;;;;;;;1781.72;999.90;;;11.00;99.90;;;;;;4919969;29;20052;-76
2022/07/28 00:28:49;;;;;;;1704.85;999.90;;;11.00;99.90;;;;;;4902754;29;20051;-75
2022/07/28 00:31:15;;;;;;;1737.75;999.90;;;11.20;99.90;;;;;;4902446;29;20123;-75
2022/07/28 00:33:41;;;;;;;1777.60;999.90;;;11.00;99.90;;;;;;4919609;29;20128;-75
2022/07/28 00:36:08;;;;;;;1639.22;999.90;;;11.00;99.90;;;;;;4919376;29;20148;-75
2022/07/28 00:38:34;;;;;;;1666.95;999.90;;;11.10;99.90;;;;;;4919133;29;20048;-75
2022/07/28 00:41:12;;;;;;;1757.03;999.90;;;11.40;99.90;;;;;;4919311;29;20083;-75
2022/07/28 00:43:47;;;;;;;1666.80;999.90;;;11.00;99.90;;;;;;4902573;29;20398;-75
2022/07/28 00:46:15;;;;;;;1762.88;999.90;;;11.00;99.90;;;;;;4918006;29;20071;-77
2022/07/28 00:48:44;;;;;;;1624.35;999.75;;;10.90;99.90;;;;;;4902727;29;20063;-76
2022/07/28 00:51:10;;;;;;;1608.53;999.90;;;10.90;99.90;;;;;;4918982;29;20051;-76
2022/07/28 00:53:39;;;;;;;1780.55;999.90;;;10.90;99.90;;;;;;4918948;29;20048;-76
2022/07/28 00:56:06;;;;;;;1671.50;999.90;;;11.20;99.90;;;;;;4918704;29;20478;-76
2022/07/28 00:58:33;;;;;;;1726.73;999.90;;;10.90;99.90;;;;;;4919100;29;20135;-76
2022/07/28 01:00:58;;;;;;;1621.45;999.90;;;10.90;99.90;;;;;;4919141;29;20440;-75
2022/07/28 01:03:25;;;;;;;1700.95;999.90;;;10.90;99.90;;;;;;4918733;29;20044;-76
2022/07/28 01:06:13;;;;;;;1698.53;999.90;;;11.50;99.90;;;;;;4919190;29;20067;-75
2022/07/28 01:09:14;;;;;;;1714.30;999.90;;;10.90;99.90;;;;;;4918687;29;20051;-75
2022/07/28 01:12:09;;;;;;;1730.25;999.90;;;10.90;99.90;;;;;;4898252;29;20083;-76
2022/07/28 01:14:51;;;;;;;1649.03;999.90;;;10.90;99.90;;;;;;4919130;29;20059;-76
2022/07/28 01:17:37;;;;;;;1750.45;999.90;;;10.90;99.90;;;;;;4918557;29;20048;-76
2022/07/28 01:20:12;;;;;;;1683.13;999.90;;;11.20;99.90;;;;;;4918629;29;20056;-89
2022/07/28 01:22:55;;;;;;;1688.55;999.90;;;10.90;99.90;;;;;;4918467;29;20044;-76
2022/07/28 01:25:31;;;;;;;1642.90;999.90;;;11.00;99.90;;;;;;4918481;29;20094;-76
2022/07/28 01:28:17;;;;;;;1655.72;999.90;;;11.10;99.90;;;;;;4901686;29;20455;-76
2022/07/28 01:30:46;;;;;;;1598.85;999.90;;;10.80;99.90;;;;;;4904692;29;20056;-78
2022/07/28 01:33:19;;;;;;;1711.18;999.90;;;10.80;99.90;;;;;;4918130;29;20111;-76
2022/07/28 01:35:53;;;;;;;1704.28;999.90;;;10.80;99.90;;;;;;4918581;29;20087;-76
2022/07/28 01:38:21;;;;;;;1725.03;999.90;;;10.80;99.90;;;;;;4917859;29;20052;-76
2022/07/28 01:40:50;;;;;;;1737.68;999.90;;;12.20;99.90;;;;;;4918436;29;20066;-76
2022/07/28 01:43:20;;;;;;;1730.50;999.90;;;10.70;99.90;;;;;;4917975;29;20399;-73
2022/07/28 01:45:46;;;;;;;1813.43;999.90;;;10.70;99.90;;;;;;4901443;29;20434;-75
2022/07/28 01:48:15;;;;;;;1757.28;999.90;;;10.70;99.90;;;;;;4917580;29;20144;-75
2022/07/28 01:50:42;;;;;;;1732.78;999.90;;;11.80;99.90;;;;;;4918195;29;20059;-75
2022/07/28 01:53:10;;;;;;;1905.50;999.90;;;10.90;99.90;;;;;;4917535;29;20048;-76
2022/07/28 01:55:38;;;;;;;1690.97;999.90;;;10.80;99.90;;;;;;4918162;29;20048;-76
2022/07/28 01:58:06;;;;;;;1849.72;999.90;;;10.60;99.90;;;;;;4918095;29;20044;-75
2022/07/28 02:00:32;;;;;;;1857.22;999.90;;;11.00;99.90;;;;;;4917848;29;20199;-75
2022/07/28 02:03:02;;;;;;;1787.67;999.90;;;10.50;99.90;;;;;;4917961;29;20063;-75
2022/07/28 02:05:29;;;;;;;1826.78;999.90;;;10.50;99.90;;;;;;4917520;29;20474;-75
2022/07/28 02:07:58;;;;;;;1923.95;999.90;;;10.50;99.90;;;;;;4917616;29;20087;-75
2022/07/28 02:10:24;;;;;;;1890.30;999.90;;;10.50;99.90;;;;;;4917596;29;20044;-76
2022/07/28 02:12:51;;;;;;;1979.50;999.90;;;10.60;99.90;;;;;;4917879;29;20052;-75
2022/07/28 02:15:19;;;;;;;1974.57;999.90;;;10.50;99.90;;;;;;4917691;29;20052;-76
2022/07/28 02:17:46;;;;;;;1583.70;999.90;;;10.50;99.90;;;;;;4901002;29;20138;-75
2022/07/28 02:20:13;;;;;;;1721.90;999.90;;;10.50;99.90;;;;;;4917605;29;20044;-78
2022/07/28 02:22:40;;;;;;;1810.07;999.90;;;10.60;99.90;;;;;;4916753;29;20044;-75
2022/07/28 02:25:07;;;;;;;1856.93;999.90;;;11.10;99.90;;;;;;4917691;29;20048;-75
2022/07/28 02:27:40;;;;;;;1670.93;999.90;;;10.60;99.90;;;;;;4917148;29;20505;-75
2022/07/28 02:30:36;;;;;;;1690.07;999.90;;;12.00;99.90;;;;;;4916410;29;20058;-75
2022/07/28 02:33:12;;;;;;;1949.05;999.90;;;10.60;99.90;;;;;;4900414;29;20092;-75
2022/07/28 02:36:27;;;;;;;1891.53;999.90;;;10.60;99.90;;;;;;4917582;29;20059;-76
2022/07/28 02:38:55;;;;;;;1820.75;999.90;;;10.50;99.90;;;;;;4900609;29;20082;-75
2022/07/28 02:41:27;;;;;;;;;;;10.50;99.90;;;;;;4900760;29;20048;-74
2022/07/28 02:43:58;;;;;;;1737.00;999.90;;;10.50;99.90;;;;;;4900478;29;20026;-74
2022/07/28 02:46:28;;;;;;;1678.40;999.90;;;10.50;99.90;;;;;;4916932;29;20048;-76
2022/07/28 02:48:59;;;;;;;1979.13;999.90;;;10.80;99.90;;;;;;4916890;29;20462;-74
2022/07/28 02:51:28;;;;;;;1885.55;999.90;;;10.50;99.90;;;;;;4900061;29;20450;-79
2022/07/28 02:53:55;;;;;;;1822.03;999.90;;;10.80;99.90;;;;;;4916766;29;20095;-74
2022/07/28 02:56:22;;;;;;;1719.10;999.90;;;10.40;99.90;;;;;;4916923;29;20056;-75
2022/07/28 02:58:50;;;;;;;1707.80;999.90;;;10.40;99.90;;;;;;4916946;29;20067;-75
2022/07/28 03:01:17;;;;;;;;;;;10.40;99.90;;;;;;4917621;29;20048;-75
2022/07/28 03:03:45;;;;;;;1552.25;999.90;;;11.50;99.90;;;;;;4916905;29;20013;-75
2022/07/28 03:06:11;;;;;;;1600.70;999.90;;;10.40;99.90;;;;;;4917039;29;20044;-74
2022/07/28 03:08:37;;;;;;;1606.00;999.90;;;10.40;99.90;;;;;;4916373;29;20067;-78
2022/07/28 03:11:11;;;;;;;1715.22;999.90;;;10.40;99.90;;;;;;4915837;29;20048;-74
2022/07/28 03:13:37;;;;;;;1676.43;999.90;;;10.40;99.90;;;;;;4916548;29;20384;-75
2022/07/28 03:16:04;;;;;;;1640.47;999.90;;;11.30;99.90;;;;;;4916870;29;20107;-75
2022/07/28 03:18:30;;;;;;;1759.47;999.90;;;10.30;99.90;;;;;;4916505;29;20056;-75
2022/07/28 03:20:57;;;;;;;1804.30;999.90;;;10.30;99.90;;;;;;4916850;29;20429;-75
2022/07/28 03:23:43;;;;;;;1750.68;999.90;;;10.30;99.90;;;;;;4916078;29;20056;-74
2022/07/28 03:26:17;;;;;;;1733.20;999.90;;;10.30;99.90;;;;;;4917061;29;20052;-77
2022/07/28 03:28:45;;;;;;;1669.90;999.90;;;10.20;99.90;;;;;;4916696;29;20482;-75
2022/07/28 03:31:12;;;;;;;1710.13;999.90;;;10.20;99.90;;;;;;4916612;29;20086;-74
2022/07/28 03:33:38;;;;;;;1708.75;999.90;;;10.10;99.90;;;;;;4915014;29;20713;-75
2022/07/28 03:36:12;;;;;;;1684.13;999.90;;;10.10;99.90;;;;;;4916881;29;20055;-75
2022/07/28 03:38:53;;;;;;;1668.30;999.90;;;11.40;99.90;;;;;;4915917;29;20047;-75
2022/07/28 03:41:21;;;;;;;1782.00;999.90;;;10.10;99.90;;;;;;4916641;29;20506;-75
2022/07/28 03:43:49;;;;;;;1762.78;999.90;;;10.20;99.90;;;;;;4916473;29;20048;-75
2022/07/28 03:46:15;;;;;;;1878.35;999.90;;;10.10;1.00;;;;;;4916499;29;20045;-75
2022/07/28 03:48:40;;;;;;;1931.93;999.90;;;11.30;1.00;;;;;;4916114;29;20051;-75
2022/07/28 03:51:06;;;;;;;1797.35;999.90;;;10.00;1.00;;;;;;4916440;29;20067;-77
2022/07/28 03:53:32;;;;;;;1856.45;999.90;;;10.00;1.00;;;;;;4915775;29;20131;-75
2022/07/28 03:55:57;;;;;;;1879.78;999.90;;;10.00;1.00;;;;;;4899601;29;20048;-74
2022/07/28 03:58:25;;;;;;;1857.40;999.90;;;10.00;1.00;;;;;;4899044;29;20146;-75
2022/07/28 04:00:51;;;;;;;1857.95;999.90;;;10.10;1.00;;;;;;4916377;29;20071;-75
2022/07/28 04:03:18;;;;;;;1910.88;999.90;;;11.20;1.00;;;;;;4916261;29;20048;-76
2022/07/28 04:05:45;;;;;;;1789.55;999.90;;;10.50;1.00;;;;;;4899182;29;20139;-75
2022/07/28 04:08:10;;;;;;;1995.63;999.90;;;10.40;1.00;;;;;;4915921;29;20048;-75
2022/07/28 04:10:36;;;;;;;1999.90;999.90;;;10.00;1.00;;;;;;4916105;29;20131;-75
2022/07/28 04:13:02;;;;;;;1795.60;999.90;;;10.40;1.00;;;;;;4916246;29;20056;-75
2022/07/28 04:15:29;;;;;;;1861.03;999.90;;;10.20;1.00;;;;;;4915892;29;20044;-75
2022/07/28 04:17:55;;;;;;;1789.95;999.90;;;10.40;1.00;;;;;;4916211;29;20063;-75
2022/07/28 04:20:22;;;;;;;1907.63;999.90;;;10.10;1.00;;;;;;4916197;29;20402;-75
2022/07/28 04:22:49;;;;;;;1735.10;999.90;;;10.20;1.00;;;;;;4915485;29;20094;-75
2022/07/28 04:25:19;;;;;;;1974.50;999.90;;;11.20;1.00;;;;;;4899546;29;20398;-75
2022/07/28 04:27:45;;;;;;;1951.80;999.90;;;12.10;1.00;;;;;;4915973;29;20091;-76
2022/07/28 04:30:16;;;;;;;1999.90;999.90;;;10.50;1.00;;;;;;4915892;29;20084;-75
2022/07/28 04:32:49;;;;;;;1721.03;999.90;;;10.60;1.00;;;;;;4915677;29;20458;-75
2022/07/28 04:35:15;;;;;;;1808.07;999.90;;;10.70;1.00;;;;;;4883876;29;20052;-76
2022/07/28 04:37:41;;;;;;;1697.63;999.90;;;10.80;1.00;;;;;;4898353;29;20414;-76
2022/07/28 04:40:09;;;;;;;1744.93;999.90;;;10.80;1.00;;;;;;4915948;29;20052;-75
2022/07/28 04:42:37;;;;;;;1999.90;999.90;;;10.90;1.00;;;;;;4915587;29;20059;-75
2022/07/28 04:45:04;;;;;;;1537.68;999.90;;;10.90;1.00;;;;;;4917331;29;20103;-75
2022/07/28 04:47:30;;;;;;;1812.57;999.90;;;11.00;1.00;;;;;;4886693;29;20060;-75
2022/07/28 04:49:56;;;;;;;1665.07;999.90;;;11.00;1.00;;;;;;4918258;29;20170;-75
2022/07/28 04:52:22;;;;;;;1672.68;999.90;;;11.70;1.00;;;;;;4918924;29;20055;-78
2022/07/28 04:54:49;;;;;;;1871.15;999.90;;;12.00;1.00;;;;;;4919047;29;20052;-76
2022/07/28 04:57:14;;;;;;;1864.68;999.90;;;12.60;1.00;;;;;;4919137;29;20044;-75
2022/07/28 04:59:40;;;;;;;1646.07;999.90;;;11.10;1.00;;;;;;4918901;29;20055;-75
2022/07/28 05:02:06;;;;;;;1922.15;999.90;;;11.10;1.00;;;;;;4919117;29;20044;-75
2022/07/28 05:04:32;;;;;;;1732.25;999.90;;;11.20;1.00;;;;;;4919213;29;20048;-75
2022/07/28 05:06:58;;;;;;;1718.68;999.90;;;11.20;1.00;;;;;;4919044;29;20401;-75
2022/07/28 05:09:24;;;;;;;1707.78;999.90;;;11.30;1.00;;;;;;4918831;29;20044;-77
2022/07/28 05:11:50;;;;;;;1595.10;999.90;;;11.40;1.00;;;;;;4918545;29;20131;-76
2022/07/28 05:14:16;;;;;;;1719.75;999.90;;;12.00;1.00;;;;;;4902117;29;20048;-76
2022/07/28 05:16:44;;;;;;;1795.00;999.90;;;11.40;1.00;;;;;;4918633;29;20083;-75
2022/07/28 05:19:11;;;;;;;1999.90;999.90;;;11.50;1.00;;;;;;4901688;29;20044;-76
2022/07/28 05:21:36;;;;;;;1737.93;999.90;;;11.60;1.00;;;;;;4918574;29;20040;-76
2022/07/28 05:24:02;;;;;;;1894.70;999.90;;;11.70;1.00;;;;;;4918431;29;20171;-75
2022/07/28 05:26:29;;;;;;;1801.75;999.90;;;11.90;1.00;;;;;;4886419;29;20459;-76
2022/07/28 05:28:55;;;;;;;1719.38;999.90;;;12.00;1.00;;;;;;4917225;29;20044;-79
2022/07/28 05:31:21;;;;;;;1858.22;999.90;;;12.10;1.00;;;;;;4918890;29;20064;-76
2022/07/28 05:33:47;;;;;;;1958.32;999.90;;;12.50;1.00;;;;;;4918254;29;20131;-75
2022/07/28 05:36:12;;;;;;;1751.15;999.90;;;12.30;1.00;;;;;;4918593;29;20059;-75
2022/07/28 05:38:38;;;;;;;1629.47;999.90;;;12.60;1.00;;;;;;4917820;29;20131;-75
2022/07/28 05:41:05;;;;;;;1748.30;999.90;;;12.60;1.00;;;;;;4918521;29;20048;-75
2022/07/28 05:43:32;;;;;;;1673.40;999.90;;;12.70;1.00;;;;;;4918344;29;20048;-75
2022/07/28 05:45:58;;;;;;;1819.57;999.90;;;;;;;;;;4918127;29;20545;-76
2022/07/28 05:48:24;;;;;;;1641.90;999.90;;;13.00;99.90;;;;;;4901566;29;20508;-75
2022/07/28 05:50:50;;;;;;;1959.15;999.90;;;13.10;99.90;;;;;;4917899;29;20044;-75
2022/07/28 05:53:16;;;;;;;1964.07;999.90;;;13.30;99.90;;;;;;4901055;29;20052;-75
2022/07/28 05:55:42;;;;;;;1844.40;999.90;;;13.30;99.90;;;;;;4917751;29;20048;-75
2022/07/28 05:58:08;;;;;;;1744.38;999.90;;;13.40;99.90;;;;;;4917634;29;20100;-76
2022/07/28 06:00:34;;;;;;;1967.50;999.90;;;13.50;99.90;;;;;;4901199;29;20052;-91
2022/07/28 06:03:01;;;;;;;1735.45;999.90;;;13.60;99.90;;;;;;4918010;29;20059;-75
2022/07/28 06:05:29;;;;;;;1783.18;999.90;;;13.70;99.90;;;;;;4918110;29;20048;-75
2022/07/28 06:07:56;;;;;;;1944.90;999.90;;;13.70;99.90;;;;;;4900452;29;20140;-75
2022/07/28 06:10:23;;;;;;;1999.90;999.90;;;13.70;99.90;;;;;;4917848;29;20070;-75
2022/07/28 06:12:51;;;;;;;1975.35;999.90;;;13.70;99.90;;;;;;4917842;29;20055;-75
2022/07/28 06:15:18;;;;;;;1856.38;999.90;;;13.80;99.90;;;;;;4917858;29;20056;-75
2022/07/28 06:17:43;;;;;;;1763.70;999.90;;;13.80;99.90;;;;;;4917389;29;20098;-75
2022/07/28 06:20:10;;;;;;;1832.95;999.90;;;13.90;99.90;;;;;;4917692;29;20083;-75
2022/07/28 06:22:53;;;;;;;1999.90;999.90;;;13.90;99.90;;;;;;4885148;29;20506;-77
2022/07/28 06:25:25;;;;;;;1959.35;999.90;;;14.00;99.90;;;;;;4917741;29;20136;-75
2022/07/28 06:27:53;;;;;;;1999.90;999.90;;;14.10;99.90;;;;;;4917301;29;20092;-75
2022/07/28 06:30:19;;;;;;;1989.70;999.90;;;14.10;99.90;;;;;;4917521;29;20092;-75
2022/07/28 06:32:46;;;;;;;1956.38;999.90;;;14.20;99.90;;;;;;4915623;29;20064;-76
2022/07/28 06:35:15;;;;;;;1855.55;999.90;;;14.20;99.90;;;;;;4917496;29;20056;-75
2022/07/28 06:37:47;;;;;;;1999.90;999.90;;;14.20;99.90;;;;;;4916811;29;20498;-75
2022/07/28 06:40:14;;;;;;;1302.40;893.65;;;14.30;99.90;;;;;;4917418;29;20115;-76
2022/07/28 06:42:41;;;;;;;1680.67;998.43;;;14.40;99.90;;;;;;4900155;29;20067;-78
2022/07/28 06:45:08;;;;;;;933.40;851.53;;;14.50;99.90;;;;;;4900736;29;20107;-76
2022/07/28 06:47:34;;;;;;;1806.65;998.50;;;14.60;99.90;;;;;;4900579;29;20052;-76
2022/07/28 06:50:00;;;;;;;1999.90;999.90;;;14.80;99.90;;;;;;4916918;29;20056;-75
2022/07/28 06:52:26;;;;;;;1999.90;999.90;;;15.00;99.90;;;;;;4899889;29;20044;-76
2022/07/28 06:54:52;;;;;;;1890.50;999.90;;;15.20;99.90;;;;;;4916898;29;20051;-76
2022/07/28 06:57:20;;;;;;;1010.55;907.72;;;15.50;99.90;;;;;;4917359;29;20044;-76
2022/07/28 06:59:45;;;;;;;1969.53;999.90;;;15.70;99.90;;;;;;4916931;29;20058;-76
2022/07/28 07:02:12;;;;;;;1912.18;999.90;;;16.00;99.90;;;;;;4900329;29;20485;-76
2022/07/28 07:04:38;;;;;;;806.78;746.25;;;16.20;99.90;;;;;;4917018;29;20459;-76
2022/07/28 07:07:04;;;;;;;962.08;867.17;;;16.30;99.90;;;;;;4916142;29;20111;-75
2022/07/28 07:09:29;;;;;;;1008.88;902.70;;;16.50;99.90;;;;;;4916830;29;20115;-75
2022/07/28 07:11:55;;;;;;;786.50;712.55;;;16.60;99.90;;;;;;4916431;29;20044;-76
2022/07/28 07:14:21;;;;;;;922.65;828.67;;;16.70;99.90;;;;;;4916828;29;20144;-76
2022/07/28 07:16:47;;;;;;;1095.20;986.65;;;16.80;99.90;;;;;;4915346;29;20087;-76
2022/07/28 07:19:12;;;;;;;431.85;403.73;;;16.90;99.90;;;;;;4915695;29;20056;-76
2022/07/28 07:21:38;;;;;;;1413.05;875.35;;;17.00;99.90;;;;;;4900054;29;20110;-76
2022/07/28 07:24:04;;;;;;;1999.90;999.90;;;17.00;99.90;;;;;;4899242;29;20060;-75
2022/07/28 07:26:29;;;;;;;375.90;351.90;;;17.10;99.90;;;;;;4916710;29;20489;-76
2022/07/28 07:28:55;;;;;;;1727.93;906.22;;;17.20;99.90;;;;;;4899482;29;20044;-76
2022/07/28 07:31:21;;;;;;;443.13;403.75;;;17.30;99.90;;;;;;4916599;29;20044;-76
2022/07/28 07:33:47;;;;;;;673.22;626.92;;;17.40;99.90;;;;;;4915826;29;20056;-76
2022/07/28 07:36:12;;;;;;;1058.97;768.10;;;17.50;99.90;;;;;;4916569;29;20064;-78
2022/07/28 07:38:38;;;;;;;1112.00;816.58;;;17.60;99.90;;;;;;4916155;29;20086;-76
2022/07/28 07:41:04;;;;;;;745.42;689.90;;;17.70;99.90;;;;;;4916436;29;20227;-76
2022/07/28 07:43:30;;;;;;;846.67;753.10;;;17.70;99.90;;;;;;4916292;29;20634;-76
2022/07/28 07:45:55;;;;;;;1258.13;704.15;;;17.80;99.90;;;;;;4916426;29;20127;-76
2022/07/28 07:48:21;;;;;;;543.95;506.67;;;17.90;99.90;;;;;;4916400;29;20497;-76
2022/07/28 07:50:47;;;;;;;321.80;300.58;;;17.90;99.90;;;;;;4916268;29;20044;-76
2022/07/28 07:53:13;;;;;;;427.08;399.90;;;18.00;99.90;;;;;;4915926;29;20062;-76
2022/07/28 07:55:39;;;;;;;539.65;502.05;;;18.00;99.90;;;;;;4899547;29;20136;-76
2022/07/28 07:58:05;;;;;;;362.00;338.45;;;18.00;99.90;;;;;;4899206;29;20420;-76
2022/07/28 08:00:31;;;;;;;479.80;446.88;;;18.00;99.90;;;;;;4916350;29;20080;-76
2022/07/28 08:02:57;;;;;;;343.00;319.75;;;18.00;99.90;;;;;;4915982;29;20080;-76
2022/07/28 08:05:23;;;;;;;1110.85;843.75;;;18.00;99.90;;;;;;4916312;29;20108;-76
2022/07/28 08:07:49;;;;;;;279.40;260.83;;;18.00;99.90;;;;;;4915730;29;20434;-76
2022/07/28 08:10:14;;;;;;;849.80;767.92;;;18.00;99.90;;;;;;4916288;29;20043;-76
2022/07/28 08:12:40;;;;;;;584.85;542.15;;;18.00;99.90;;;;;;4916304;29;20157;-76
2022/07/28 08:15:07;;;;;;;454.63;423.40;;;18.10;99.90;;;;;;4916316;29;20325;-76
2022/07/28 08:17:32;;;;;;;420.95;391.98;;;18.10;99.90;;;;;;4916267;29;20048;-77
2022/07/28 08:19:58;;;;;;;1008.42;881.17;;;18.00;99.90;;;;;;4917401;29;20478;-76
2022/07/28 08:22:24;;;;;;;814.88;729.95;;;17.90;99.90;;;;;;4918722;29;20041;-76
2022/07/28 08:24:50;;;;;;;530.53;493.13;;;17.80;99.90;;;;;;4902934;29;20055;-76
2022/07/28 08:27:16;;;;;;;1999.90;999.90;;;17.80;99.90;;;;;;4919824;29;20059;-76
2022/07/28 08:29:42;;;;;;;1015.78;900.40;;;17.70;99.90;;;;;;4887318;29;20048;-76
2022/07/28 08:32:08;;;;;;;1999.90;999.90;;;17.60;99.90;;;;;;4919211;29;20194;-77
2022/07/28 08:34:34;;;;;;;862.72;790.38;;;17.60;99.90;;;;;;4919523;29;20511;-76
2022/07/28 08:37:01;;;;;;;1202.50;985.65;;;17.50;99.90;;;;;;4919058;29;20051;-76
2022/07/28 08:39:27;;;;;;;943.00;857.92;;;17.60;99.90;;;;;;4919586;29;20056;-76
2022/07/28 08:42:06;;;;;;;1702.32;889.63;;;17.70;99.90;;;;;;4902286;29;20497;-76
2022/07/28 08:44:50;;;;;;;1071.47;919.08;;;17.90;99.90;;;;;;4919567;29;20173;-76
2022/07/28 08:47:18;;;;;;;613.60;433.13;;;18.40;99.90;;;;;;4919261;29;20461;-76
2022/07/28 08:49:44;;;;;;;;;;;18.40;99.90;;;;;;4919934;29;20056;-76
2022/07/28 08:52:11;;;;;;;654.70;610.08;;;18.60;99.90;;;;;;4918375;29;19946;-76
2022/07/28 08:54:42;;;;;;;1999.90;999.90;;;18.90;99.90;;;;;;4917839;29;20485;-77
2022/07/28 08:57:12;;;;;;;778.38;721.28;;;19.30;99.90;;;;;;4919129;29;20052;-77
2022/07/28 08:59:38;;;;;;;748.10;694.70;;;19.70;99.90;;;;;;4919624;29;20052;-77
2022/07/28 09:02:04;;;;;;;666.83;620.60;;;20.30;99.90;;;;;;4919087;29;20063;-77
2022/07/28 09:04:33;;;;;;;852.72;783.22;;;21.00;99.90;;;;;;4919445;29;20052;-77
2022/07/28 09:06:59;;;;;;;698.20;647.80;;;21.80;99.90;;;;;;4918899;29;20249;-77
2022/07/28 09:09:25;;;;;;;821.63;757.08;;;22.40;90.60;;;;;;4919418;29;20087;-78
2022/07/28 09:11:51;;;;;;;892.70;820.38;;;22.70;63.10;;;;;;4886248;29;20075;-91
2022/07/28 09:14:16;;;;;;;863.92;791.50;;;23.00;63.60;;;;;;4919030;29;20083;-77
2022/07/28 09:16:43;;;;;;;563.80;527.38;;;23.30;54.50;;;;;;4902217;29;20044;-84
2022/07/28 09:19:09;;;;;;;487.75;456.15;;;23.60;40.50;;;;;;4901896;29;20099;-76
2022/07/28 09:21:35;;;;;;;739.97;687.58;;;24.00;31.90;;;;;;4918823;29;20100;-76
2022/07/28 09:24:00;;;;;;;575.30;536.65;;;24.40;24.30;;;;;;4901400;29;20047;-76
2022/07/28 09:26:26;;;;;;;576.03;536.72;;;24.60;16.50;;;;;;4918744;29;20100;-76
2022/07/28 09:28:55;;;;;;;621.70;579.53;;;24.80;12.30;;;;;;4918611;29;20050;-76
2022/07/28 09:31:23;;;;;;;619.17;576.95;;;24.80;1.00;;;;;;4917287;29;20131;-76
2022/07/28 09:33:53;;;;;;;582.55;542.50;;;25.10;1.00;;;;;;4918785;29;20064;-78
2022/07/28 09:36:20;;;;;;;561.20;523.42;;;25.10;1.00;;;;;;4901930;29;20111;-80
2022/07/28 09:38:46;;;;;;;604.83;564.20;;;25.10;1.00;;;;;;4901406;29;20493;-77
2022/07/28 09:41:13;;;;;;;580.47;541.63;;;25.00;1.00;;;;;;4918226;29;20048;-77
2022/07/28 09:43:43;;;;;;;509.42;475.25;;;25.30;1.00;;;;;;4918436;29;20052;-76
2022/07/28 09:46:12;;;;;;;600.13;558.92;;;25.00;1.00;;;;;;4917009;29;20055;-76
2022/07/28 09:48:49;;;;;;;656.25;610.05;;;25.10;1.00;;;;;;4918842;29;20115;-77
2022/07/28 09:51:22;;;;;;;692.65;645.03;;;25.30;1.00;;;;;;4918243;29;20044;-77
2022/07/28 09:53:49;;;;;;;705.10;656.08;;;25.50;1.00;;;;;;4917981;29;20486;-76
2022/07/28 09:56:15;;;;;;;756.85;699.20;;;25.40;1.00;;;;;;4918236;29;20079;-77
2022/07/28 09:58:52;;;;;;;689.22;634.97;;;25.30;1.00;;;;;;4918595;29;20576;-77
2022/07/28 10:01:19;;;;;;;659.13;607.67;;;25.30;1.00;;;;;;4918633;29;20067;-77
2022/07/28 10:03:51;;;;;;;699.90;645.88;;;25.50;1.00;;;;;;4918336;29;20044;-77
2022/07/28 10:06:30;;;;;;;638.08;590.35;;;25.50;1.00;;;;;;4917967;29;20125;-78
2022/07/28 10:09:06;;;;;;;447.58;419.15;;;25.50;1.00;;;;;;4900876;29;20482;-76
2022/07/28 10:11:32;;;;;;;567.33;527.90;;;25.10;1.00;;;;;;4917988;29;20048;-77
2022/07/28 10:14:02;;;;;;;703.95;655.42;;;25.30;1.00;;;;;;4917765;29;20070;-91
2022/07/28 10:16:30;;;;;;;630.67;588.35;;;25.50;1.00;;;;;;4917958;29;20043;-78
2022/07/28 10:18:58;;;;;;;662.38;613.47;;;25.90;1.00;;;;;;4917865;29;20048;-77
2022/07/28 10:21:25;;;;;;;625.25;582.30;;;25.90;1.00;;;;;;4917887;29;20048;-80
2022/07/28 10:23:54;;;;;;;561.15;523.92;;;25.70;1.00;;;;;;4916255;29;20052;-77
2022/07/28 10:26:29;;;;;;;596.22;555.85;;;25.20;1.00;;;;;;4885014;29;20048;-78
2022/07/28 10:28:56;;;;;;;612.88;570.00;;;24.80;1.00;;;;;;4917738;29;20134;-77
2022/07/28 10:31:36;;;;;;;447.13;416.55;;;24.10;1.00;;;;;;4917131;29;20048;-77
2022/07/28 10:34:06;;;;;;;608.13;566.10;;;23.60;1.00;;;;;;4917468;29;20052;-77
2022/07/28 10:36:34;;;;;;;555.20;517.15;;;23.30;1.00;;;;;;4918040;29;20098;-77
2022/07/28 10:39:18;;;;;;;557.72;518.80;;;23.20;1.00;;;;;;4916218;29;20681;-77
2022/07/28 10:41:44;;;;;;;738.38;685.25;;;23.20;1.00;;;;;;4917912;29;20131;-81
2022/07/28 10:44:14;;;;;;;632.28;589.05;;;23.20;1.00;;;;;;4917141;29;20482;-77
2022/07/28 10:46:41;;;;;;;710.65;661.78;;;23.10;1.00;;;;;;4917454;29;20124;-77
2022/07/28 10:49:08;;;;;;;759.05;703.30;;;22.90;1.00;;;;;;4917281;29;20080;-77
2022/07/28 10:51:35;;;;;;;789.80;729.33;;;22.60;1.00;;;;;;4917191;29;20048;-76
2022/07/28 10:54:09;;;;;;;861.42;793.00;;;22.30;1.00;;;;;;4916906;29;20140;-77
2022/07/28 10:56:55;;;;;;;846.97;779.97;;;22.00;1.00;;;;;;4917184;29;20055;-77
2022/07/28 10:59:39;;;;;;;596.60;556.25;;;21.70;1.00;;;;;;4899708;29;20520;-77
2022/07/28 11:02:05;;;;;;;688.97;640.22;;;21.50;1.00;;;;;;4916627;29;20048;-77
2022/07/28 11:04:39;;;;;;;679.00;631.13;;;21.50;1.00;;;;;;4916995;29;20113;-77
2022/07/28 11:07:13;;;;;;;588.60;543.88;;;21.60;1.00;;;;;;4915966;29;20382;-77
2022/07/28 11:09:39;;;;;;;647.15;602.10;;;21.70;1.00;;;;;;4917011;29;20500;-77
2022/07/28 11:12:05;;;;;;;673.70;625.45;;;21.90;1.00;;;;;;4916437;29;20171;-81
2022/07/28 11:14:36;;;;;;;729.28;677.30;;;22.20;1.00;;;;;;4916885;29;20178;-77
2022/07/28 11:17:05;;;;;;;699.17;650.05;;;22.90;1.00;;;;;;4916810;29;20104;-78
2022/07/28 11:19:42;;;;;;;676.70;628.72;;;23.80;1.00;;;;;;4916817;29;20131;-78
2022/07/28 11:22:14;;;;;;;590.63;552.03;;;24.50;1.00;;;;;;4916079;29;20178;-77
2022/07/28 11:25:01;;;;;;;630.65;587.55;;;24.90;1.00;;;;;;4916974;29;20143;-78
2022/07/28 11:27:39;;;;;;;606.50;564.92;;;24.90;1.00;;;;;;4899871;29;20443;-77
2022/07/28 11:30:34;;;;;;;493.45;459.60;;;25.20;1.00;;;;;;4916812;29;20090;-77
2022/07/28 11:33:01;;;;;;;673.88;627.70;;;25.90;1.00;;;;;;4888563;29;20524;-77
2022/07/28 11:35:28;;;;;;;645.57;599.63;;;26.60;1.00;;;;;;4916555;29;20107;-77
2022/07/28 11:38:00;;;;;;;;;;;26.60;1.00;;;;;;4916893;29;20148;-77
2022/07/28 11:40:30;;;;;;;457.65;426.88;;;26.40;1.00;;;;;;4915336;29;19923;-78
2022/07/28 11:43:21;;;;;;;414.60;386.10;;;26.20;1.00;;;;;;4916644;29;20055;-77
2022/07/28 11:45:47;;;;;;;462.05;427.40;;;25.80;1.00;;;;;;4916586;29;20052;-79
2022/07/28 11:48:13;;;;;;;370.08;345.02;;;25.30;1.00;;;;;;4899483;29;20398;-77
2022/07/28 11:50:41;;;;;;;630.75;585.42;;;24.90;1.00;;;;;;4916407;29;20040;-76
2022/07/28 11:53:06;;;;;;;577.20;537.08;;;24.80;1.00;;;;;;4899432;29;20147;-77
2022/07/28 11:55:32;;;;;;;369.73;344.83;;;24.80;1.00;;;;;;4918537;29;20085;-79
2022/07/28 11:58:02;;;;;;;593.97;551.42;;;25.20;1.00;;;;;;4920223;29;20052;-77
2022/07/28 12:00:28;;;;;;;552.08;512.00;;;25.60;1.00;;;;;;4919833;29;20536;-76
2022/07/28 12:02:55;;;;;;;602.73;560.10;;;26.10;1.00;;;;;;4920245;29;20131;-76
2022/07/28 12:05:21;;;;;;;423.88;395.45;;;26.90;1.00;;;;;;4920076;29;20055;-78
2022/07/28 12:07:49;;;;;;;296.77;277.95;;;27.80;1.00;;;;;;4919958;29;20048;-78
2022/07/28 12:10:41;;;;;;;434.85;406.15;;;28.40;1.00;;;;;;4919986;29;20127;-78
2022/07/28 12:13:07;;;;;;;372.73;350.15;;;28.70;1.00;;;;;;4916605;29;20120;-77
2022/07/28 12:15:36;;;;;;;329.98;309.38;;;28.70;1.00;;;;;;4919806;29;20052;-77
2022/07/28 12:18:02;;;;;;;417.67;390.33;;;28.10;1.00;;;;;;4918843;29;20054;-78